sensor_id;sensor_type;location;lat;lon;timestamp;pressure;altitude;pressure_sealevel;temperature
20490;BMP280;10403;54.092;12.122;2023-09-30T00:00:08;102119.03;;;17.77
20490;BMP280;10403;54.092;12.122;2023-09-30T00:02:36;102114.66;;;17.76
20490;BMP280;10403;54.092;12.122;2023-09-30T00:05:04;102103.31;;;17.71
20490;BMP280;10403;54.092;12.122;2023-09-30T00:07:32;102130.50;;;17.78
20490;BMP280;10403;54.092;12.122;2023-09-30T00:09:59;102108.72;;;17.65
20490;BMP280;10403;54.092;12.122;2023-09-30T00:12:27;102126.13;;;17.75
20490;BMP280;10403;54.092;12.122;2023-09-30T00:14:55;102125.44;;;17.67
20490;BMP280;10403;54.092;12.122;2023-09-30T00:17:22;102128.13;;;17.64
20490;BMP280;10403;54.092;12.122;2023-09-30T00:19:50;102140.44;;;17.66
20490;BMP280;10403;54.092;12.122;2023-09-30T00:22:17;102131.78;;;17.57
20490;BMP280;10403;54.092;12.122;2023-09-30T00:24:45;102132.78;;;17.53
20490;BMP280;10403;54.092;12.122;2023-09-30T00:27:12;102135.44;;;17.51
20490;BMP280;10403;54.092;12.122;2023-09-30T00:29:40;102132.03;;;17.45
20490;BMP280;10403;54.092;12.122;2023-09-30T00:32:07;102146.13;;;17.45
20490;BMP280;10403;54.092;12.122;2023-09-30T00:34:35;102135.72;;;17.37
20490;BMP280;10403;54.092;12.122;2023-09-30T00:37:03;102152.34;;;17.44
20490;BMP280;10403;54.092;12.122;2023-09-30T00:39:32;102132.38;;;17.29
20490;BMP280;10403;54.092;12.122;2023-09-30T00:42:00;102138.50;;;17.31
20490;BMP280;10403;54.092;12.122;2023-09-30T00:44:28;102151.66;;;17.34
20490;BMP280;10403;54.092;12.122;2023-09-30T00:46:56;102153.53;;;17.29
20490;BMP280;10403;54.092;12.122;2023-09-30T00:49:26;102157.94;;;17.29
20490;BMP280;10403;54.092;12.122;2023-09-30T00:51:55;102160.59;;;17.27
20490;BMP280;10403;54.092;12.122;2023-09-30T00:54:25;102164.22;;;17.23
20490;BMP280;10403;54.092;12.122;2023-09-30T00:56:55;102144.19;;;17.10
20490;BMP280;10403;54.092;12.122;2023-09-30T00:59:24;102152.91;;;17.15
20490;BMP280;10403;54.092;12.122;2023-09-30T01:01:56;102154.78;;;17.10
20490;BMP280;10403;54.092;12.122;2023-09-30T01:04:26;102155.69;;;17.08
20490;BMP280;10403;54.092;12.122;2023-09-30T01:06:54;102163.63;;;17.08
20490;BMP280;10403;54.092;12.122;2023-09-30T01:09:24;102173.25;;;17.13
20490;BMP280;10403;54.092;12.122;2023-09-30T01:11:52;102166.25;;;17.09
20490;BMP280;10403;54.092;12.122;2023-09-30T01:14:33;102150.56;;;17.00
20490;BMP280;10403;54.092;12.122;2023-09-30T01:17:09;102176.81;;;17.09
20490;BMP280;10403;54.092;12.122;2023-09-30T01:19:41;102183.00;;;17.08
20490;BMP280;10403;54.092;12.122;2023-09-30T01:22:11;102165.63;;;16.95
20490;BMP280;10403;54.092;12.122;2023-09-30T01:24:41;102191.00;;;17.05
20490;BMP280;10403;54.092;12.122;2023-09-30T01:27:09;102167.50;;;16.88
20490;BMP280;10403;54.092;12.122;2023-09-30T01:29:37;102185.00;;;16.95
20490;BMP280;10403;54.092;12.122;2023-09-30T01:32:06;102194.66;;;16.98
20490;BMP280;10403;54.092;12.122;2023-09-30T01:34:37;102184.25;;;16.89
20490;BMP280;10403;54.092;12.122;2023-09-30T01:37:05;102173.78;;;16.83
20490;BMP280;10403;54.092;12.122;2023-09-30T01:39:33;102182.53;;;16.85
20490;BMP280;10403;54.092;12.122;2023-09-30T01:42:01;102174.75;;;16.76
20490;BMP280;10403;54.092;12.122;2023-09-30T01:44:29;102187.81;;;16.85
20490;BMP280;10403;54.092;12.122;2023-09-30T01:46:56;102188.78;;;16.81
20490;BMP280;10403;54.092;12.122;2023-09-30T01:49:24;102172.25;;;16.70
20490;BMP280;10403;54.092;12.122;2023-09-30T01:51:53;102186.22;;;16.75
20490;BMP280;10403;54.092;12.122;2023-09-30T01:54:20;102204.63;;;16.82
20490;BMP280;10403;54.092;12.122;2023-09-30T01:56:48;102191.59;;;16.72
20490;BMP280;10403;54.092;12.122;2023-09-30T01:59:16;102193.31;;;16.74
20490;BMP280;10403;54.092;12.122;2023-09-30T02:01:44;102186.34;;;16.69
20490;BMP280;10403;54.092;12.122;2023-09-30T02:04:13;102181.97;;;16.66
20490;BMP280;10403;54.092;12.122;2023-09-30T02:06:43;102188.22;;;16.63
20490;BMP280;10403;54.092;12.122;2023-09-30T02:09:12;102195.16;;;16.68
20490;BMP280;10403;54.092;12.122;2023-09-30T02:11:43;102186.50;;;16.56
20490;BMP280;10403;54.092;12.122;2023-09-30T02:14:21;102179.47;;;16.55
20490;BMP280;10403;54.092;12.122;2023-09-30T02:16:49;102221.53;;;16.74
20490;BMP280;10403;54.092;12.122;2023-09-30T02:19:16;102208.50;;;16.61
20490;BMP280;10403;54.092;12.122;2023-09-30T02:21:43;102228.59;;;16.70
20490;BMP280;10403;54.092;12.122;2023-09-30T02:24:11;102220.81;;;16.62
20490;BMP280;10403;54.092;12.122;2023-09-30T02:26:38;102224.31;;;16.64
20490;BMP280;10403;54.092;12.122;2023-09-30T02:29:06;102212.09;;;16.54
20490;BMP280;10403;54.092;12.122;2023-09-30T02:31:34;102205.94;;;16.54
20490;BMP280;10403;54.092;12.122;2023-09-30T02:34:02;102203.34;;;16.51
20490;BMP280;10403;54.092;12.122;2023-09-30T02:36:30;102222.56;;;16.60
20490;BMP280;10403;54.092;12.122;2023-09-30T02:38:59;102230.53;;;16.57
20490;BMP280;10403;54.092;12.122;2023-09-30T02:41:28;102214.84;;;16.45
20490;BMP280;10403;54.092;12.122;2023-09-30T02:43:56;102218.50;;;16.38
20490;BMP280;10403;54.092;12.122;2023-09-30T02:46:23;102225.50;;;16.42
20490;BMP280;10403;54.092;12.122;2023-09-30T02:48:51;102214.19;;;16.33
20490;BMP280;10403;54.092;12.122;2023-09-30T02:51:19;102210.72;;;16.27
20490;BMP280;10403;54.092;12.122;2023-09-30T02:53:46;102226.47;;;16.35
20490;BMP280;10403;54.092;12.122;2023-09-30T02:56:15;102214.34;;;16.22
20490;BMP280;10403;54.092;12.122;2023-09-30T02:58:42;102237.06;;;16.32
20490;BMP280;10403;54.092;12.122;2023-09-30T03:01:14;102228.34;;;16.27
20490;BMP280;10403;54.092;12.122;2023-09-30T03:03:44;102223.16;;;16.21
20490;BMP280;10403;54.092;12.122;2023-09-30T03:06:12;102220.63;;;16.13
20490;BMP280;10403;54.092;12.122;2023-09-30T03:08:39;102245.13;;;16.23
20490;BMP280;10403;54.092;12.122;2023-09-30T03:11:08;102226.75;;;16.15
20490;BMP280;10403;54.092;12.122;2023-09-30T03:13:35;102232.06;;;16.12
20490;BMP280;10403;54.092;12.122;2023-09-30T03:16:03;102223.25;;;16.13
20490;BMP280;10403;54.092;12.122;2023-09-30T03:18:31;102216.38;;;16.00
20490;BMP280;10403;54.092;12.122;2023-09-30T03:21:00;102243.53;;;16.10
20490;BMP280;10403;54.092;12.122;2023-09-30T03:23:28;102245.28;;;16.11
20490;BMP280;10403;54.092;12.122;2023-09-30T03:25:59;102233.97;;;16.01
20490;BMP280;10403;54.092;12.122;2023-09-30T03:28:26;102239.28;;;15.98
20490;BMP280;10403;54.092;12.122;2023-09-30T03:30:54;102244.56;;;15.98
20490;BMP280;10403;54.092;12.122;2023-09-30T03:33:22;102238.47;;;15.95
20490;BMP280;10403;54.092;12.122;2023-09-30T03:35:49;102253.34;;;15.99
20490;BMP280;10403;54.092;12.122;2023-09-30T03:38:16;102251.69;;;15.91
20490;BMP280;10403;54.092;12.122;2023-09-30T03:40:45;102261.38;;;15.93
20490;BMP280;10403;54.092;12.122;2023-09-30T03:43:16;102245.56;;;15.86
20490;BMP280;10403;54.092;12.122;2023-09-30T03:45:44;102273.66;;;15.95
20490;BMP280;10403;54.092;12.122;2023-09-30T03:48:12;102264.06;;;15.86
20490;BMP280;10403;54.092;12.122;2023-09-30T03:50:40;102252.66;;;15.84
20490;BMP280;10403;54.092;12.122;2023-09-30T03:53:07;102268.53;;;15.81
20490;BMP280;10403;54.092;12.122;2023-09-30T03:55:34;102263.28;;;15.77
20490;BMP280;10403;54.092;12.122;2023-09-30T03:58:02;102245.00;;;15.60
20490;BMP280;10403;54.092;12.122;2023-09-30T04:00:30;102263.34;;;15.72
20490;BMP280;10403;54.092;12.122;2023-09-30T04:02:58;102259.88;;;15.67
20490;BMP280;10403;54.092;12.122;2023-09-30T04:05:26;102236.22;;;15.61
20490;BMP280;10403;54.092;12.122;2023-09-30T04:07:56;102228.38;;;15.52
20490;BMP280;10403;54.092;12.122;2023-09-30T04:10:24;102279.09;;;15.78
20490;BMP280;10403;54.092;12.122;2023-09-30T04:12:52;102252.91;;;15.63
20490;BMP280;10403;54.092;12.122;2023-09-30T04:15:19;102273.88;;;15.75
20490;BMP280;10403;54.092;12.122;2023-09-30T04:17:48;102242.38;;;15.60
20490;BMP280;10403;54.092;12.122;2023-09-30T04:20:16;102273.03;;;15.73
20490;BMP280;10403;54.092;12.122;2023-09-30T04:22:49;102242.44;;;15.57
20490;BMP280;10403;54.092;12.122;2023-09-30T04:25:17;102248.50;;;15.65
20490;BMP280;10403;54.092;12.122;2023-09-30T04:27:46;102251.16;;;15.62
20490;BMP280;10403;54.092;12.122;2023-09-30T04:30:17;102266.03;;;15.68
20490;BMP280;10403;54.092;12.122;2023-09-30T04:32:45;102249.47;;;15.57
20490;BMP280;10403;54.092;12.122;2023-09-30T04:35:12;102260.81;;;15.63
20490;BMP280;10403;54.092;12.122;2023-09-30T04:37:40;102253.84;;;15.53
20490;BMP280;10403;54.092;12.122;2023-09-30T04:40:09;102261.84;;;15.47
20490;BMP280;10403;54.092;12.122;2023-09-30T04:42:44;102255.72;;;15.45
20490;BMP280;10403;54.092;12.122;2023-09-30T04:45:14;102263.63;;;15.46
20490;BMP280;10403;54.092;12.122;2023-09-30T04:47:49;102268.03;;;15.43
20490;BMP280;10403;54.092;12.122;2023-09-30T04:50:17;102271.56;;;15.42
20490;BMP280;10403;54.092;12.122;2023-09-30T04:52:53;102253.25;;;15.27
20490;BMP280;10403;54.092;12.122;2023-09-30T04:55:21;102249.75;;;15.25
20490;BMP280;10403;54.092;12.122;2023-09-30T04:57:49;102269.91;;;15.32
20490;BMP280;10403;54.092;12.122;2023-09-30T05:00:19;102297.03;;;15.46
20490;BMP280;10403;54.092;12.122;2023-09-30T05:02:55;102285.63;;;15.39
20490;BMP280;10403;54.092;12.122;2023-09-30T05:05:23;102284.75;;;15.39
20490;BMP280;10403;54.092;12.122;2023-09-30T05:07:51;102288.34;;;15.35
20490;BMP280;10403;54.092;12.122;2023-09-30T05:10:18;102296.25;;;15.32
20490;BMP280;10403;54.092;12.122;2023-09-30T05:12:46;102303.22;;;15.40
20490;BMP280;10403;54.092;12.122;2023-09-30T05:15:16;102312.00;;;15.41
20490;BMP280;10403;54.092;12.122;2023-09-30T05:17:46;102275.31;;;15.16
20490;BMP280;10403;54.092;12.122;2023-09-30T05:20:16;102308.50;;;15.40
20490;BMP280;10403;54.092;12.122;2023-09-30T05:22:47;102312.88;;;15.40
20490;BMP280;10403;54.092;12.122;2023-09-30T05:25:17;102286.66;;;15.28
20490;BMP280;10403;54.092;12.122;2023-09-30T05:27:46;102274.38;;;15.21
20490;BMP280;10403;54.092;12.122;2023-09-30T05:30:16;102316.31;;;15.48
20490;BMP280;10403;54.092;12.122;2023-09-30T05:32:44;102322.44;;;15.53
20490;BMP280;10403;54.092;12.122;2023-09-30T05:35:19;102303.28;;;15.34
20490;BMP280;10403;54.092;12.122;2023-09-30T05:37:50;102313.78;;;15.39
20490;BMP280;10403;54.092;12.122;2023-09-30T05:40:20;102301.53;;;15.32
20490;BMP280;10403;54.092;12.122;2023-09-30T05:42:58;102324.38;;;15.37
20490;BMP280;10403;54.092;12.122;2023-09-30T05:45:30;102335.75;;;15.41
20490;BMP280;10403;54.092;12.122;2023-09-30T05:47:58;102311.25;;;15.27
20490;BMP280;10403;54.092;12.122;2023-09-30T05:50:30;102303.38;;;15.24
20490;BMP280;10403;54.092;12.122;2023-09-30T05:52:58;102318.22;;;15.34
20490;BMP280;10403;54.092;12.122;2023-09-30T05:55:25;102315.59;;;15.32
20490;BMP280;10403;54.092;12.122;2023-09-30T05:57:54;102301.63;;;15.23
20490;BMP280;10403;54.092;12.122;2023-09-30T06:00:23;102319.03;;;15.40
20490;BMP280;10403;54.092;12.122;2023-09-30T06:02:57;102308.53;;;15.37
20490;BMP280;10403;54.092;12.122;2023-09-30T06:05:26;102315.53;;;15.40
20490;BMP280;10403;54.092;12.122;2023-09-30T06:07:57;102338.31;;;15.48
20490;BMP280;10403;54.092;12.122;2023-09-30T06:10:24;102329.63;;;15.37
20490;BMP280;10403;54.092;12.122;2023-09-30T06:12:54;102348.84;;;15.51
20490;BMP280;10403;54.092;12.122;2023-09-30T06:15:25;102349.72;;;15.55
20490;BMP280;10403;54.092;12.122;2023-09-30T06:17:55;102347.97;;;15.57
20490;BMP280;10403;54.092;12.122;2023-09-30T06:20:23;102333.06;;;15.45
20490;BMP280;10403;54.092;12.122;2023-09-30T06:22:54;102336.53;;;15.50
20490;BMP280;10403;54.092;12.122;2023-09-30T06:25:23;102361.06;;;15.66
20490;BMP280;10403;54.092;12.122;2023-09-30T06:27:54;102340.88;;;15.61
20490;BMP280;10403;54.092;12.122;2023-09-30T06:30:24;102330.38;;;15.53
20490;BMP280;10403;54.092;12.122;2023-09-30T06:32:59;102366.28;;;15.72
20490;BMP280;10403;54.092;12.122;2023-09-30T06:35:30;102340.03;;;15.52
20490;BMP280;10403;54.092;12.122;2023-09-30T06:38:01;102362.84;;;15.63
20490;BMP280;10403;54.092;12.122;2023-09-30T06:40:29;102386.44;;;15.79
20490;BMP280;10403;54.092;12.122;2023-09-30T06:42:57;102366.28;;;15.69
20490;BMP280;10403;54.092;12.122;2023-09-30T06:45:26;102380.25;;;15.82
20490;BMP280;10403;54.092;12.122;2023-09-30T06:47:54;102349.66;;;15.63
20490;BMP280;10403;54.092;12.122;2023-09-30T06:50:22;102360.97;;;15.75
20490;BMP280;10403;54.092;12.122;2023-09-30T06:52:52;102386.34;;;15.88
20490;BMP280;10403;54.092;12.122;2023-09-30T06:55:22;102395.97;;;15.94
20490;BMP280;10403;54.092;12.122;2023-09-30T06:57:52;102395.03;;;15.97
20490;BMP280;10403;54.092;12.122;2023-09-30T07:00:19;102394.22;;;15.95
20490;BMP280;10403;54.092;12.122;2023-09-30T07:02:48;102393.31;;;15.96
20490;BMP280;10403;54.092;12.122;2023-09-30T07:05:17;102412.53;;;16.10
20490;BMP280;10403;54.092;12.122;2023-09-30T07:07:44;102416.06;;;16.09
20490;BMP280;10403;54.092;12.122;2023-09-30T07:10:13;102386.28;;;15.95
20490;BMP280;10403;54.092;12.122;2023-09-30T07:12:41;102410.78;;;16.09
20490;BMP280;10403;54.092;12.122;2023-09-30T07:15:10;102387.19;;;15.90
20490;BMP280;10403;54.092;12.122;2023-09-30T07:17:38;102416.91;;;16.14
20490;BMP280;10403;54.092;12.122;2023-09-30T07:20:09;102440.56;;;16.23
20490;BMP280;10403;54.092;12.122;2023-09-30T07:22:39;102437.06;;;16.21
20490;BMP280;10403;54.092;12.122;2023-09-30T07:25:23;102443.19;;;16.23
20490;BMP280;10403;54.092;12.122;2023-09-30T07:27:50;102449.31;;;16.28
20490;BMP280;10403;54.092;12.122;2023-09-30T07:30:18;102455.44;;;16.30
20490;BMP280;10403;54.092;12.122;2023-09-30T07:32:46;102457.22;;;16.29
20490;BMP280;10403;54.092;12.122;2023-09-30T07:35:14;102451.84;;;16.36
20490;BMP280;10403;54.092;12.122;2023-09-30T07:37:43;102440.44;;;16.35
20490;BMP280;10403;54.092;12.122;2023-09-30T07:40:12;102436.94;;;16.32
20490;BMP280;10403;54.092;12.122;2023-09-30T07:42:40;102447.50;;;16.32
20490;BMP280;10403;54.092;12.122;2023-09-30T07:45:10;102436.09;;;16.29
20490;BMP280;10403;54.092;12.122;2023-09-30T07:47:38;102441.31;;;16.34
20490;BMP280;10403;54.092;12.122;2023-09-30T07:50:07;102457.94;;;16.44
20490;BMP280;10403;54.092;12.122;2023-09-30T07:52:39;102423.75;;;16.28
20490;BMP280;10403;54.092;12.122;2023-09-30T07:55:08;102446.44;;;16.49
20490;BMP280;10403;54.092;12.122;2023-09-30T07:57:39;102442.97;;;16.44
20490;BMP280;10403;54.092;12.122;2023-09-30T08:00:08;102442.09;;;16.44
20490;BMP280;10403;54.092;12.122;2023-09-30T08:02:38;102447.28;;;16.53
20490;BMP280;10403;54.092;12.122;2023-09-30T08:05:07;102469.16;;;16.65
20490;BMP280;10403;54.092;12.122;2023-09-30T08:07:36;102456.00;;;16.58
20490;BMP280;10403;54.092;12.122;2023-09-30T08:10:04;102451.69;;;16.54
20490;BMP280;10403;54.092;12.122;2023-09-30T08:12:34;102464.81;;;16.64
20490;BMP280;10403;54.092;12.122;2023-09-30T08:15:02;102449.84;;;16.56
20490;BMP280;10403;54.092;12.122;2023-09-30T08:17:31;102456.91;;;16.61
20490;BMP280;10403;54.092;12.122;2023-09-30T08:19:59;102459.53;;;16.63
20490;BMP280;10403;54.092;12.122;2023-09-30T08:22:27;102453.38;;;16.62
20490;BMP280;10403;54.092;12.122;2023-09-30T08:24:55;102451.53;;;16.66
20490;BMP280;10403;54.092;12.122;2023-09-30T08:27:24;102464.75;;;16.68
20490;BMP280;10403;54.092;12.122;2023-09-30T08:29:51;102454.16;;;16.68
20490;BMP280;10403;54.092;12.122;2023-09-30T08:32:19;102472.56;;;16.75
20490;BMP280;10403;54.092;12.122;2023-09-30T08:34:49;102462.97;;;16.67
20490;BMP280;10403;54.092;12.122;2023-09-30T08:37:16;102486.63;;;16.79
20490;BMP280;10403;54.092;12.122;2023-09-30T08:39:44;102459.44;;;16.71
20490;BMP280;10403;54.092;12.122;2023-09-30T08:42:11;102462.09;;;16.68
20490;BMP280;10403;54.092;12.122;2023-09-30T08:44:39;102468.16;;;16.77
20490;BMP280;10403;54.092;12.122;2023-09-30T08:47:07;102473.31;;;16.86
20490;BMP280;10403;54.092;12.122;2023-09-30T08:49:38;102448.75;;;16.77
20490;BMP280;10403;54.092;12.122;2023-09-30T08:52:10;102481.19;;;16.94
20490;BMP280;10403;54.092;12.122;2023-09-30T08:54:37;102471.50;;;16.93
20490;BMP280;10403;54.092;12.122;2023-09-30T08:57:09;102465.31;;;16.94
20490;BMP280;10403;54.092;12.122;2023-09-30T08:59:41;102466.19;;;16.93
20490;BMP280;10403;54.092;12.122;2023-09-30T09:02:10;102473.06;;;17.06
20490;BMP280;10403;54.092;12.122;2023-09-30T09:04:37;102468.72;;;17.04
20490;BMP280;10403;54.092;12.122;2023-09-30T09:07:05;102480.91;;;17.14
20490;BMP280;10403;54.092;12.122;2023-09-30T09:09:33;102465.97;;;17.08
20490;BMP280;10403;54.092;12.122;2023-09-30T09:12:00;102476.41;;;17.20
20490;BMP280;10403;54.092;12.122;2023-09-30T09:17:10;102461.41;;;17.19
20490;BMP280;10403;54.092;12.122;2023-09-30T09:19:37;102488.47;;;17.39
20490;BMP280;10403;54.092;12.122;2023-09-30T09:22:05;102474.47;;;17.31
20490;BMP280;10403;54.092;12.122;2023-09-30T09:24:37;102483.06;;;17.46
20490;BMP280;10403;54.092;12.122;2023-09-30T09:27:12;102493.50;;;17.56
20490;BMP280;10403;54.092;12.122;2023-09-30T09:29:44;102471.59;;;17.47
20490;BMP280;10403;54.092;12.122;2023-09-30T09:32:15;102486.41;;;17.60
20490;BMP280;10403;54.092;12.122;2023-09-30T09:34:45;102475.00;;;17.55
20490;BMP280;10403;54.092;12.122;2023-09-30T09:37:27;102481.00;;;17.69
20490;BMP280;10403;54.092;12.122;2023-09-30T09:39:57;102489.66;;;17.79
20490;BMP280;10403;54.092;12.122;2023-09-30T09:42:31;102492.28;;;17.80
20490;BMP280;10403;54.092;12.122;2023-09-30T09:45:05;102487.00;;;17.80
20490;BMP280;10403;54.092;12.122;2023-09-30T09:47:34;102494.81;;;17.86
20490;BMP280;10403;54.092;12.122;2023-09-30T09:50:04;102470.22;;;17.81
20490;BMP280;10403;54.092;12.122;2023-09-30T09:52:34;102485.00;;;17.93
20490;BMP280;10403;54.092;12.122;2023-09-30T09:55:04;102477.91;;;17.95
20490;BMP280;10403;54.092;12.122;2023-09-30T09:57:32;102479.59;;;18.00
20490;BMP280;10403;54.092;12.122;2023-09-30T10:00:02;102474.34;;;17.96
20490;BMP280;10403;54.092;12.122;2023-09-30T10:02:32;102475.13;;;18.02
20490;BMP280;10403;54.092;12.122;2023-09-30T10:05:03;102461.84;;;18.04
20490;BMP280;10403;54.092;12.122;2023-09-30T10:07:38;102467.97;;;18.07
20490;BMP280;10403;54.092;12.122;2023-09-30T10:10:13;102470.47;;;18.17
20490;BMP280;10403;54.092;12.122;2023-09-30T10:12:42;102485.34;;;18.24
20490;BMP280;10403;54.092;12.122;2023-09-30T10:18:11;102466.63;;;18.31
20490;BMP280;10403;54.092;12.122;2023-09-30T10:20:44;102473.66;;;18.34
20490;BMP280;10403;54.092;12.122;2023-09-30T10:23:26;102474.50;;;18.37
20490;BMP280;10403;54.092;12.122;2023-09-30T10:26:24;102479.69;;;18.42
20490;BMP280;10403;54.092;12.122;2023-09-30T10:28:51;102492.88;;;18.46
20490;BMP280;10403;54.092;12.122;2023-09-30T10:31:21;102475.31;;;18.41
20490;BMP280;10403;54.092;12.122;2023-09-30T10:36:41;102481.34;;;18.49
20490;BMP280;10403;54.092;12.122;2023-09-30T10:39:13;102481.44;;;18.43
20490;BMP280;10403;54.092;12.122;2023-09-30T10:44:37;102501.59;;;18.52
20490;BMP280;10403;54.092;12.122;2023-09-30T10:49:49;102473.44;;;18.46
20490;BMP280;10403;54.092;12.122;2023-09-30T10:52:22;102486.41;;;18.61
20490;BMP280;10403;54.092;12.122;2023-09-30T10:54:51;102481.00;;;18.67
20490;BMP280;10403;54.092;12.122;2023-09-30T10:57:28;102463.41;;;18.63
20490;BMP280;10403;54.092;12.122;2023-09-30T11:00:25;102493.88;;;18.85
20490;BMP280;10403;54.092;12.122;2023-09-30T11:02:54;102503.53;;;18.90
20490;BMP280;10403;54.092;12.122;2023-09-30T11:05:27;102493.03;;;18.83
20490;BMP280;10403;54.092;12.122;2023-09-30T11:08:22;102495.59;;;18.88
20490;BMP280;10403;54.092;12.122;2023-09-30T11:10:52;102466.66;;;18.77
20490;BMP280;10403;54.092;12.122;2023-09-30T11:13:21;102473.72;;;18.78
20490;BMP280;10403;54.092;12.122;2023-09-30T11:16:00;102482.31;;;18.90
20490;BMP280;10403;54.092;12.122;2023-09-30T11:18:32;102451.66;;;18.76
20490;BMP280;10403;54.092;12.122;2023-09-30T11:21:29;102470.88;;;18.88
20490;BMP280;10403;54.092;12.122;2023-09-30T11:23:57;102472.53;;;18.92
20490;BMP280;10403;54.092;12.122;2023-09-30T11:26:33;102470.72;;;18.94
20490;BMP280;10403;54.092;12.122;2023-09-30T11:29:14;102491.72;;;19.04
20490;BMP280;10403;54.092;12.122;2023-09-30T11:31:49;102477.63;;;19.01
20490;BMP280;10403;54.092;12.122;2023-09-30T11:34:31;102485.34;;;19.13
20490;BMP280;10403;54.092;12.122;2023-09-30T11:37:01;102477.53;;;19.07
20490;BMP280;10403;54.092;12.122;2023-09-30T11:39:30;102487.09;;;19.14
20490;BMP280;10403;54.092;12.122;2023-09-30T11:41:59;102459.88;;;19.04
20490;BMP280;10403;54.092;12.122;2023-09-30T11:44:49;102481.50;;;19.26
20490;BMP280;10403;54.092;12.122;2023-09-30T11:47:29;102493.69;;;19.35
20490;BMP280;10403;54.092;12.122;2023-09-30T11:50:01;102470.94;;;19.25
20490;BMP280;10403;54.092;12.122;2023-09-30T11:52:30;102463.84;;;19.25
20490;BMP280;10403;54.092;12.122;2023-09-30T11:54:57;102478.53;;;19.40
20490;BMP280;10403;54.092;12.122;2023-09-30T11:57:25;102486.41;;;19.44
20490;BMP280;10403;54.092;12.122;2023-09-30T11:59:52;102474.84;;;19.48
20490;BMP280;10403;54.092;12.122;2023-09-30T12:02:41;102478.25;;;19.53
20490;BMP280;10403;54.092;12.122;2023-09-30T12:05:09;102474.78;;;19.50
20490;BMP280;10403;54.092;12.122;2023-09-30T12:07:38;102489.72;;;19.55
20490;BMP280;10403;54.092;12.122;2023-09-30T12:10:09;102482.53;;;19.59
20490;BMP280;10403;54.092;12.122;2023-09-30T12:12:37;102462.22;;;19.58
20490;BMP280;10403;54.092;12.122;2023-09-30T12:15:08;102465.75;;;19.58
20490;BMP280;10403;54.092;12.122;2023-09-30T12:17:36;102448.84;;;19.61
20490;BMP280;10403;54.092;12.122;2023-09-30T12:20:07;102465.38;;;19.72
20490;BMP280;10403;54.092;12.122;2023-09-30T12:22:36;102473.94;;;19.85
20490;BMP280;10403;54.092;12.122;2023-09-30T12:25:04;102467.84;;;19.80
20490;BMP280;10403;54.092;12.122;2023-09-30T12:27:36;102459.91;;;19.78
20490;BMP280;10403;54.092;12.122;2023-09-30T12:30:07;102465.13;;;19.83
20490;BMP280;10403;54.092;12.122;2023-09-30T12:32:34;102447.50;;;19.79
20490;BMP280;10403;54.092;12.122;2023-09-30T12:35:02;102455.56;;;19.76
20490;BMP280;10403;54.092;12.122;2023-09-30T12:37:32;102431.81;;;19.70
20490;BMP280;10403;54.092;12.122;2023-09-30T12:40:01;102465.09;;;19.84
20490;BMP280;10403;54.092;12.122;2023-09-30T12:42:30;102479.06;;;19.92
20490;BMP280;10403;54.092;12.122;2023-09-30T12:44:59;102465.84;;;19.89
20490;BMP280;10403;54.092;12.122;2023-09-30T12:47:27;102476.66;;;19.82
20490;BMP280;10403;54.092;12.122;2023-09-30T12:49:58;102491.66;;;19.84
20490;BMP280;10403;54.092;12.122;2023-09-30T12:52:25;102480.31;;;19.78
20490;BMP280;10403;54.092;12.122;2023-09-30T12:54:54;102458.53;;;19.64
20490;BMP280;10403;54.092;12.122;2023-09-30T12:57:23;102447.25;;;19.54
20490;BMP280;10403;54.092;12.122;2023-09-30T12:59:50;102450.97;;;19.45
20490;BMP280;10403;54.092;12.122;2023-09-30T13:02:19;102474.69;;;19.54
20490;BMP280;10403;54.092;12.122;2023-09-30T13:04:46;102476.50;;;19.52
20490;BMP280;10403;54.092;12.122;2023-09-30T13:07:14;102476.41;;;19.57
20490;BMP280;10403;54.092;12.122;2023-09-30T13:09:43;102462.16;;;19.59
20490;BMP280;10403;54.092;12.122;2023-09-30T13:12:10;102470.91;;;19.65
20490;BMP280;10403;54.092;12.122;2023-09-30T13:14:38;102472.66;;;19.66
20490;BMP280;10403;54.092;12.122;2023-09-30T13:17:07;102465.44;;;19.71
20490;BMP280;10403;54.092;12.122;2023-09-30T13:19:37;102438.41;;;19.53
20490;BMP280;10403;54.092;12.122;2023-09-30T13:22:04;102473.16;;;19.80
20490;BMP280;10403;54.092;12.122;2023-09-30T13:24:45;102450.38;;;19.71
20490;BMP280;10403;54.092;12.122;2023-09-30T13:27:14;102430.94;;;19.69
20490;BMP280;10403;54.092;12.122;2023-09-30T13:29:45;102437.84;;;19.76
20490;BMP280;10403;54.092;12.122;2023-09-30T13:32:14;102459.75;;;19.86
20490;BMP280;10403;54.092;12.122;2023-09-30T13:34:42;102453.34;;;19.93
20490;BMP280;10403;54.092;12.122;2023-09-30T13:37:10;102448.88;;;19.95
20490;BMP280;10403;54.092;12.122;2023-09-30T13:39:38;102445.38;;;19.93
20490;BMP280;10403;54.092;12.122;2023-09-30T13:42:06;102464.72;;;19.98
20490;BMP280;10403;54.092;12.122;2023-09-30T13:44:34;102453.34;;;19.93
20490;BMP280;10403;54.092;12.122;2023-09-30T13:47:02;102454.16;;;19.97
20490;BMP280;10403;54.092;12.122;2023-09-30T13:49:30;102449.84;;;19.91
20490;BMP280;10403;54.092;12.122;2023-09-30T13:51:59;102448.09;;;19.90
20490;BMP280;10403;54.092;12.122;2023-09-30T13:54:27;102456.84;;;19.95
20490;BMP280;10403;54.092;12.122;2023-09-30T13:56:56;102460.44;;;19.92
20490;BMP280;10403;54.092;12.122;2023-09-30T13:59:23;102453.59;;;19.84
20490;BMP280;10403;54.092;12.122;2023-09-30T14:01:51;102460.69;;;19.83
20490;BMP280;10403;54.092;12.122;2023-09-30T14:04:20;102454.78;;;19.72
20490;BMP280;10403;54.092;12.122;2023-09-30T14:06:48;102458.25;;;19.74
20490;BMP280;10403;54.092;12.122;2023-09-30T14:09:15;102446.94;;;19.68
20490;BMP280;10403;54.092;12.122;2023-09-30T14:12:03;102461.09;;;19.68